sensor_id;sensor_type;location;lat;lon;timestamp;temperature;humidity
15160;DHT22;7680;48.800;9.680;2023-10-08T00:01:23;11.20;99.90
15160;DHT22;7680;48.800;9.680;2023-10-08T00:06:27;11.20;99.90
15160;DHT22;7680;48.800;9.680;2023-10-08T00:11:34;11.20;99.90
15160;DHT22;7680;48.800;9.680;2023-10-08T00:16:39;11.10;99.90
15160;DHT22;7680;48.800;9.680;2023-10-08T00:21:42;11.10;99.90
15160;DHT22;7680;48.800;9.680;2023-10-08T00:26:48;11.10;99.90
15160;DHT22;7680;48.800;9.680;2023-10-08T00:31:52;11.30;99.90
15160;DHT22;7680;48.800;9.680;2023-10-08T00:36:58;11.40;99.90
15160;DHT22;7680;48.800;9.680;2023-10-08T00:42:03;11.40;99.90
15160;DHT22;7680;48.800;9.680;2023-10-08T00:47:09;11.50;99.90
15160;DHT22;7680;48.800;9.680;2023-10-08T00:52:14;11.50;99.90
15160;DHT22;7680;48.800;9.680;2023-10-08T00:57:33;11.40;99.90
15160;DHT22;7680;48.800;9.680;2023-10-08T01:02:38;11.30;99.90
15160;DHT22;7680;48.800;9.680;2023-10-08T01:07:48;11.20;99.90
15160;DHT22;7680;48.800;9.680;2023-10-08T01:12:54;11.10;99.90
15160;DHT22;7680;48.800;9.680;2023-10-08T01:18:07;11.10;99.90
15160;DHT22;7680;48.800;9.680;2023-10-08T01:23:18;11.10;99.90
15160;DHT22;7680;48.800;9.680;2023-10-08T01:28:22;11.00;99.90
15160;DHT22;7680;48.800;9.680;2023-10-08T01:33:30;11.10;99.90
15160;DHT22;7680;48.800;9.680;2023-10-08T01:38:40;11.10;99.90
15160;DHT22;7680;48.800;9.680;2023-10-08T01:43:44;11.10;99.90
15160;DHT22;7680;48.800;9.680;2023-10-08T01:48:47;11.20;99.90
15160;DHT22;7680;48.800;9.680;2023-10-08T01:53:56;11.20;99.90
15160;DHT22;7680;48.800;9.680;2023-10-08T01:59:00;11.30;99.90
15160;DHT22;7680;48.800;9.680;2023-10-08T02:04:04;11.30;99.90
15160;DHT22;7680;48.800;9.680;2023-10-08T02:09:10;11.30;99.90
15160;DHT22;7680;48.800;9.680;2023-10-08T02:14:15;11.30;99.90
15160;DHT22;7680;48.800;9.680;2023-10-08T02:19:18;11.20;99.90
15160;DHT22;7680;48.800;9.680;2023-10-08T02:24:30;11.20;99.90
15160;DHT22;7680;48.800;9.680;2023-10-08T02:29:34;11.10;99.90
15160;DHT22;7680;48.800;9.680;2023-10-08T02:34:37;11.00;99.90
15160;DHT22;7680;48.800;9.680;2023-10-08T02:39:42;10.80;99.90
15160;DHT22;7680;48.800;9.680;2023-10-08T02:44:46;10.70;99.90
15160;DHT22;7680;48.800;9.680;2023-10-08T02:49:50;10.70;99.90
15160;DHT22;7680;48.800;9.680;2023-10-08T02:54:55;10.60;99.90
15160;DHT22;7680;48.800;9.680;2023-10-08T02:59:58;10.50;99.90
15160;DHT22;7680;48.800;9.680;2023-10-08T03:05:01;10.50;99.90
15160;DHT22;7680;48.800;9.680;2023-10-08T03:10:11;10.50;99.90
15160;DHT22;7680;48.800;9.680;2023-10-08T03:15:20;10.50;99.90
15160;DHT22;7680;48.800;9.680;2023-10-08T03:20:31;10.60;99.90
15160;DHT22;7680;48.800;9.680;2023-10-08T03:25:45;10.50;99.90
15160;DHT22;7680;48.800;9.680;2023-10-08T03:30:49;10.50;99.90
15160;DHT22;7680;48.800;9.680;2023-10-08T03:35:52;10.50;99.90
15160;DHT22;7680;48.800;9.680;2023-10-08T03:40:58;10.40;99.90
15160;DHT22;7680;48.800;9.680;2023-10-08T03:46:10;10.30;99.90
15160;DHT22;7680;48.800;9.680;2023-10-08T03:51:17;10.30;99.90
15160;DHT22;7680;48.800;9.680;2023-10-08T03:56:25;10.20;99.90
15160;DHT22;7680;48.800;9.680;2023-10-08T04:01:31;10.20;99.90
15160;DHT22;7680;48.800;9.680;2023-10-08T04:06:36;10.10;99.90
15160;DHT22;7680;48.800;9.680;2023-10-08T04:11:42;10.10;99.90
15160;DHT22;7680;48.800;9.680;2023-10-08T04:17:05;10.10;99.90
15160;DHT22;7680;48.800;9.680;2023-10-08T04:22:10;10.00;99.90
15160;DHT22;7680;48.800;9.680;2023-10-08T04:27:19;10.00;99.90
15160;DHT22;7680;48.800;9.680;2023-10-08T04:32:23;10.00;99.90
15160;DHT22;7680;48.800;9.680;2023-10-08T04:37:27;10.00;99.90
15160;DHT22;7680;48.800;9.680;2023-10-08T04:42:36;10.00;99.90
15160;DHT22;7680;48.800;9.680;2023-10-08T04:47:42;10.20;99.90
15160;DHT22;7680;48.800;9.680;2023-10-08T04:52:46;10.10;99.90
15160;DHT22;7680;48.800;9.680;2023-10-08T04:58:01;10.10;99.90
15160;DHT22;7680;48.800;9.680;2023-10-08T05:03:21;10.20;99.90
15160;DHT22;7680;48.800;9.680;2023-10-08T05:08:25;10.20;99.90
15160;DHT22;7680;48.800;9.680;2023-10-08T05:13:36;10.20;99.90
15160;DHT22;7680;48.800;9.680;2023-10-08T05:18:57;10.00;99.90
15160;DHT22;7680;48.800;9.680;2023-10-08T05:24:26;9.90;99.90
15160;DHT22;7680;48.800;9.680;2023-10-08T05:29:41;9.90;99.90
15160;DHT22;7680;48.800;9.680;2023-10-08T05:35:10;9.80;99.90
15160;DHT22;7680;48.800;9.680;2023-10-08T05:40:31;9.80;99.90
15160;DHT22;7680;48.800;9.680;2023-10-08T05:46:08;9.70;99.90
15160;DHT22;7680;48.800;9.680;2023-10-08T05:51:42;9.70;99.90
15160;DHT22;7680;48.800;9.680;2023-10-08T05:57:07;9.70;99.90
15160;DHT22;7680;48.800;9.680;2023-10-08T06:02:28;9.70;99.90
15160;DHT22;7680;48.800;9.680;2023-10-08T06:07:52;9.80;99.90
15160;DHT22;7680;48.800;9.680;2023-10-08T06:13:14;10.00;99.90
15160;DHT22;7680;48.800;9.680;2023-10-08T06:18:23;10.30;99.90
15160;DHT22;7680;48.800;9.680;2023-10-08T06:23:29;10.40;99.90
15160;DHT22;7680;48.800;9.680;2023-10-08T06:28:38;10.70;99.90
15160;DHT22;7680;48.800;9.680;2023-10-08T06:33:44;10.90;99.90
15160;DHT22;7680;48.800;9.680;2023-10-08T06:38:47;11.10;99.90
15160;DHT22;7680;48.800;9.680;2023-10-08T06:43:51;11.10;99.90
15160;DHT22;7680;48.800;9.680;2023-10-08T06:49:07;11.10;99.90
15160;DHT22;7680;48.800;9.680;2023-10-08T06:54:15;11.30;99.90
15160;DHT22;7680;48.800;9.680;2023-10-08T06:59:19;11.40;99.90
15160;DHT22;7680;48.800;9.680;2023-10-08T07:04:26;11.50;99.90
15160;DHT22;7680;48.800;9.680;2023-10-08T07:09:31;11.70;99.90
15160;DHT22;7680;48.800;9.680;2023-10-08T07:14:37;11.80;99.90
15160;DHT22;7680;48.800;9.680;2023-10-08T07:19:45;11.90;99.90
15160;DHT22;7680;48.800;9.680;2023-10-08T07:24:52;12.00;99.90
15160;DHT22;7680;48.800;9.680;2023-10-08T07:29:55;12.30;99.90
15160;DHT22;7680;48.800;9.680;2023-10-08T07:35:02;12.40;99.90
15160;DHT22;7680;48.800;9.680;2023-10-08T07:40:27;12.50;99.90
15160;DHT22;7680;48.800;9.680;2023-10-08T07:45:32;12.70;99.90
15160;DHT22;7680;48.800;9.680;2023-10-08T07:50:43;12.90;99.90
15160;DHT22;7680;48.800;9.680;2023-10-08T07:55:47;13.10;99.90
15160;DHT22;7680;48.800;9.680;2023-10-08T08:00:50;13.00;99.90
15160;DHT22;7680;48.800;9.680;2023-10-08T08:05:58;13.30;99.90
15160;DHT22;7680;48.800;9.680;2023-10-08T08:11:02;13.50;99.90
15160;DHT22;7680;48.800;9.680;2023-10-08T08:16:07;14.00;99.90
15160;DHT22;7680;48.800;9.680;2023-10-08T08:21:20;14.40;99.90
15160;DHT22;7680;48.800;9.680;2023-10-08T08:26:24;15.00;99.90
15160;DHT22;7680;48.800;9.680;2023-10-08T08:31:31;16.00;99.90
15160;DHT22;7680;48.800;9.680;2023-10-08T08:36:38;16.70;99.90
15160;DHT22;7680;48.800;9.680;2023-10-08T08:41:48;17.10;99.90
15160;DHT22;7680;48.800;9.680;2023-10-08T08:46:51;17.10;99.90
15160;DHT22;7680;48.800;9.680;2023-10-08T08:51:57;17.70;99.90
15160;DHT22;7680;48.800;9.680;2023-10-08T08:57:03;17.60;99.90
15160;DHT22;7680;48.800;9.680;2023-10-08T09:02:09;17.70;99.90
15160;DHT22;7680;48.800;9.680;2023-10-08T09:07:20;18.20;99.90
15160;DHT22;7680;48.800;9.680;2023-10-08T09:12:26;18.60;99.90
15160;DHT22;7680;48.800;9.680;2023-10-08T09:17:29;19.20;99.90
15160;DHT22;7680;48.800;9.680;2023-10-08T09:22:33;19.50;99.90
15160;DHT22;7680;48.800;9.680;2023-10-08T09:27:37;20.10;97.00
15160;DHT22;7680;48.800;9.680;2023-10-08T09:32:48;20.70;96.60
15160;DHT22;7680;48.800;9.680;2023-10-08T09:37:55;21.00;95.80
15160;DHT22;7680;48.800;9.680;2023-10-08T09:42:59;21.60;95.10
15160;DHT22;7680;48.800;9.680;2023-10-08T09:48:10;22.10;93.70
15160;DHT22;7680;48.800;9.680;2023-10-08T09:53:18;22.30;94.10
15160;DHT22;7680;48.800;9.680;2023-10-08T09:58:27;22.30;93.40
15160;DHT22;7680;48.800;9.680;2023-10-08T10:03:31;22.30;93.10
15160;DHT22;7680;48.800;9.680;2023-10-08T10:08:39;22.20;93.40
15160;DHT22;7680;48.800;9.680;2023-10-08T10:13:44;22.00;93.30
15160;DHT22;7680;48.800;9.680;2023-10-08T10:18:49;22.30;93.20
15160;DHT22;7680;48.800;9.680;2023-10-08T10:23:54;22.70;92.20
15160;DHT22;7680;48.800;9.680;2023-10-08T10:29:17;22.80;92.30
15160;DHT22;7680;48.800;9.680;2023-10-08T10:34:23;22.80;92.80
15160;DHT22;7680;48.800;9.680;2023-10-08T10:39:34;22.70;92.90
15160;DHT22;7680;48.800;9.680;2023-10-08T10:44:41;23.20;91.70
15160;DHT22;7680;48.800;9.680;2023-10-08T10:49:46;23.40;91.60
15160;DHT22;7680;48.800;9.680;2023-10-08T10:54:56;23.40;90.80
15160;DHT22;7680;48.800;9.680;2023-10-08T11:00:03;23.50;90.50
15160;DHT22;7680;48.800;9.680;2023-10-08T11:05:33;23.20;90.40
15160;DHT22;7680;48.800;9.680;2023-10-08T11:10:42;22.60;91.70
15160;DHT22;7680;48.800;9.680;2023-10-08T11:15:51;23.00;91.50
15160;DHT22;7680;48.800;9.680;2023-10-08T11:21:06;23.20;91.30
15160;DHT22;7680;48.800;9.680;2023-10-08T11:26:19;23.20;91.10
15160;DHT22;7680;48.800;9.680;2023-10-08T11:31:29;23.10;91.40
15160;DHT22;7680;48.800;9.680;2023-10-08T11:36:36;23.10;91.50
15160;DHT22;7680;48.800;9.680;2023-10-08T11:42:00;23.00;91.30
15160;DHT22;7680;48.800;9.680;2023-10-08T11:47:08;23.00;91.20
15160;DHT22;7680;48.800;9.680;2023-10-08T11:52:15;22.80;91.50
15160;DHT22;7680;48.800;9.680;2023-10-08T11:57:25;22.80;91.10
15160;DHT22;7680;48.800;9.680;2023-10-08T12:02:28;22.60;91.90
15160;DHT22;7680;48.800;9.680;2023-10-08T12:07:31;22.60;92.20
15160;DHT22;7680;48.800;9.680;2023-10-08T12:12:39;22.60;92.00
15160;DHT22;7680;48.800;9.680;2023-10-08T12:17:42;22.70;92.00
15160;DHT22;7680;48.800;9.680;2023-10-08T12:22:46;23.30;90.40
15160;DHT22;7680;48.800;9.680;2023-10-08T12:27:51;23.50;90.00
15160;DHT22;7680;48.800;9.680;2023-10-08T12:32:54;23.50;90.00
15160;DHT22;7680;48.800;9.680;2023-10-08T12:37:59;23.50;89.30
15160;DHT22;7680;48.800;9.680;2023-10-08T12:43:03;23.30;90.20
15160;DHT22;7680;48.800;9.680;2023-10-08T12:48:09;23.30;90.40
15160;DHT22;7680;48.800;9.680;2023-10-08T12:53:15;23.20;90.70
15160;DHT22;7680;48.800;9.680;2023-10-08T12:58:21;23.30;90.50
15160;DHT22;7680;48.800;9.680;2023-10-08T13:03:27;23.20;90.40
15160;DHT22;7680;48.800;9.680;2023-10-08T13:08:33;23.10;90.90
15160;DHT22;7680;48.800;9.680;2023-10-08T13:13:37;23.10;90.00
15160;DHT22;7680;48.800;9.680;2023-10-08T13:18:41;23.00;90.60
15160;DHT22;7680;48.800;9.680;2023-10-08T13:23:45;22.90;90.80
15160;DHT22;7680;48.800;9.680;2023-10-08T13:28:52;23.00;91.40
15160;DHT22;7680;48.800;9.680;2023-10-08T13:33:56;22.90;91.30
15160;DHT22;7680;48.800;9.680;2023-10-08T13:39:03;22.90;91.50
15160;DHT22;7680;48.800;9.680;2023-10-08T13:44:12;23.00;91.90
15160;DHT22;7680;48.800;9.680;2023-10-08T13:49:15;23.00;92.00
15160;DHT22;7680;48.800;9.680;2023-10-08T13:54:20;22.90;92.00
15160;DHT22;7680;48.800;9.680;2023-10-08T13:59:25;22.90;91.50
15160;DHT22;7680;48.800;9.680;2023-10-08T14:04:29;22.90;91.50
15160;DHT22;7680;48.800;9.680;2023-10-08T14:09:36;23.00;91.20
15160;DHT22;7680;48.800;9.680;2023-10-08T14:14:41;22.90;90.70
15160;DHT22;7680;48.800;9.680;2023-10-08T14:19:46;22.90;91.10
15160;DHT22;7680;48.800;9.680;2023-10-08T14:24:54;22.90;91.40
15160;DHT22;7680;48.800;9.680;2023-10-08T14:30:03;22.90;91.10
15160;DHT22;7680;48.800;9.680;2023-10-08T14:35:08;22.90;91.20
15160;DHT22;7680;48.800;9.680;2023-10-08T14:40:29;22.90;91.40
15160;DHT22;7680;48.800;9.680;2023-10-08T14:45:51;22.90;91.10
15160;DHT22;7680;48.800;9.680;2023-10-08T14:50:55;23.00;91.20
15160;DHT22;7680;48.800;9.680;2023-10-08T14:56:01;23.00;91.10
15160;DHT22;7680;48.800;9.680;2023-10-08T15:01:07;23.00;91.90
15160;DHT22;7680;48.800;9.680;2023-10-08T15:06:10;22.90;92.10
15160;DHT22;7680;48.800;9.680;2023-10-08T15:11:13;22.80;92.40
15160;DHT22;7680;48.800;9.680;2023-10-08T15:16:19;22.70;92.40
15160;DHT22;7680;48.800;9.680;2023-10-08T15:21:24;22.60;92.10
15160;DHT22;7680;48.800;9.680;2023-10-08T15:26:27;22.60;92.10
15160;DHT22;7680;48.800;9.680;2023-10-08T15:31:33;22.50;92.30
15160;DHT22;7680;48.800;9.680;2023-10-08T15:36:36;22.50;92.50
15160;DHT22;7680;48.800;9.680;2023-10-08T15:41:40;22.40;93.00
15160;DHT22;7680;48.800;9.680;2023-10-08T15:46:46;22.30;93.70
15160;DHT22;7680;48.800;9.680;2023-10-08T15:51:50;22.20;93.10
15160;DHT22;7680;48.800;9.680;2023-10-08T15:56:53;22.00;93.30
15160;DHT22;7680;48.800;9.680;2023-10-08T16:01:58;21.90;93.60
15160;DHT22;7680;48.800;9.680;2023-10-08T16:07:02;21.60;94.60
15160;DHT22;7680;48.800;9.680;2023-10-08T16:12:06;21.40;95.10
15160;DHT22;7680;48.800;9.680;2023-10-08T16:17:11;21.10;96.90
15160;DHT22;7680;48.800;9.680;2023-10-08T16:22:17;20.80;98.40
15160;DHT22;7680;48.800;9.680;2023-10-08T16:27:20;20.60;99.30
15160;DHT22;7680;48.800;9.680;2023-10-08T16:32:26;20.50;99.70
15160;DHT22;7680;48.800;9.680;2023-10-08T16:37:29;20.40;99.90
15160;DHT22;7680;48.800;9.680;2023-10-08T16:42:32;20.30;99.90
15160;DHT22;7680;48.800;9.680;2023-10-08T16:47:38;20.10;99.90
15160;DHT22;7680;48.800;9.680;2023-10-08T16:52:42;19.80;99.90
15160;DHT22;7680;48.800;9.680;2023-10-08T16:57:45;19.70;99.90
15160;DHT22;7680;48.800;9.680;2023-10-08T17:02:49;19.60;99.90
15160;DHT22;7680;48.800;9.680;2023-10-08T17:07:53;19.40;99.90
15160;DHT22;7680;48.800;9.680;2023-10-08T17:12:57;19.20;99.90
15160;DHT22;7680;48.800;9.680;2023-10-08T17:18:02;19.10;99.90
15160;DHT22;7680;48.800;9.680;2023-10-08T17:23:08;19.00;99.90
15160;DHT22;7680;48.800;9.680;2023-10-08T17:28:11;18.90;99.90
15160;DHT22;7680;48.800;9.680;2023-10-08T17:33:16;18.70;99.90
15160;DHT22;7680;48.800;9.680;2023-10-08T17:38:20;18.60;99.90
15160;DHT22;7680;48.800;9.680;2023-10-08T17:43:24;18.50;99.90
15160;DHT22;7680;48.800;9.680;2023-10-08T17:48:29;18.30;99.90
15160;DHT22;7680;48.800;9.680;2023-10-08T17:53:37;18.10;99.90
15160;DHT22;7680;48.800;9.680;2023-10-08T17:58:41;17.90;99.90
15160;DHT22;7680;48.800;9.680;2023-10-08T18:03:45;17.70;99.90
15160;DHT22;7680;48.800;9.680;2023-10-08T18:08:50;17.60;99.90
15160;DHT22;7680;48.800;9.680;2023-10-08T18:13:54;17.50;99.90
15160;DHT22;7680;48.800;9.680;2023-10-08T18:18:59;17.40;99.90
15160;DHT22;7680;48.800;9.680;2023-10-08T18:24:03;17.30;99.90
15160;DHT22;7680;48.800;9.680;2023-10-08T18:29:08;17.10;99.90
15160;DHT22;7680;48.800;9.680;2023-10-08T18:34:16;17.00;99.90
15160;DHT22;7680;48.800;9.680;2023-10-08T18:39:20;16.90;99.90
15160;DHT22;7680;48.800;9.680;2023-10-08T18:44:23;16.60;99.90
15160;DHT22;7680;48.800;9.680;2023-10-08T18:49:28;16.60;99.90
15160;DHT22;7680;48.800;9.680;2023-10-08T18:54:31;16.40;99.90
15160;DHT22;7680;48.800;9.680;2023-10-08T18:59:36;16.30;99.90
15160;DHT22;7680;48.800;9.680;2023-10-08T19:04:40;16.20;99.90
15160;DHT22;7680;48.800;9.680;2023-10-08T19:09:44;16.10;99.90
15160;DHT22;7680;48.800;9.680;2023-10-08T19:14:48;16.00;99.90
15160;DHT22;7680;48.800;9.680;2023-10-08T19:19:53;15.80;99.90
15160;DHT22;7680;48.800;9.680;2023-10-08T19:24:56;15.70;99.90
15160;DHT22;7680;48.800;9.680;2023-10-08T19:30:00;15.70;99.90
15160;DHT22;7680;48.800;9.680;2023-10-08T19:35:09;15.50;99.90
15160;DHT22;7680;48.800;9.680;2023-10-08T19:40:13;15.50;99.90
15160;DHT22;7680;48.800;9.680;2023-10-08T19:45:16;15.40;99.90
15160;DHT22;7680;48.800;9.680;2023-10-08T19:50:23;15.40;99.90
15160;DHT22;7680;48.800;9.680;2023-10-08T19:55:28;15.20;99.90
15160;DHT22;7680;48.800;9.680;2023-10-08T20:00:31;15.10;99.90
15160;DHT22;7680;48.800;9.680;2023-10-08T20:05:38;15.00;99.90
15160;DHT22;7680;48.800;9.680;2023-10-08T20:10:42;14.90;99.90
15160;DHT22;7680;48.800;9.680;2023-10-08T20:15:45;14.80;99.90
15160;DHT22;7680;48.800;9.680;2023-10-08T20:20:54;14.70;99.90
15160;DHT22;7680;48.800;9.680;2023-10-08T20:25:57;14.50;99.90
15160;DHT22;7680;48.800;9.680;2023-10-08T20:31:00;14.40;99.90
15160;DHT22;7680;48.800;9.680;2023-10-08T20:36:05;14.30;99.90
15160;DHT22;7680;48.800;9.680;2023-10-08T20:41:14;14.20;99.90
15160;DHT22;7680;48.800;9.680;2023-10-08T20:46:19;14.00;99.90
15160;DHT22;7680;48.800;9.680;2023-10-08T20:51:24;14.00;99.90
15160;DHT22;7680;48.800;9.680;2023-10-08T20:56:28;13.90;99.90
15160;DHT22;7680;48.800;9.680;2023-10-08T21:01:31;13.80;99.90
15160;DHT22;7680;48.800;9.680;2023-10-08T21:06:36;13.70;99.90
15160;DHT22;7680;48.800;9.680;2023-10-08T21:11:39;13.70;99.90
15160;DHT22;7680;48.800;9.680;2023-10-08T21:16:43;13.60;99.90
15160;DHT22;7680;48.800;9.680;2023-10-08T21:21:49;13.60;99.90
15160;DHT22;7680;48.800;9.680;2023-10-08T21:26:52;13.50;99.90
15160;DHT22;7680;48.800;9.680;2023-10-08T21:31:56;13.40;99.90
15160;DHT22;7680;48.800;9.680;2023-10-08T21:37:01;13.30;99.90
15160;DHT22;7680;48.800;9.680;2023-10-08T21:42:06;13.30;99.90
15160;DHT22;7680;48.800;9.680;2023-10-08T21:47:09;13.30;99.90
15160;DHT22;7680;48.800;9.680;2023-10-08T21:52:13;13.30;99.90
15160;DHT22;7680;48.800;9.680;2023-10-08T21:57:16;13.20;99.90
15160;DHT22;7680;48.800;9.680;2023-10-08T22:02:20;13.10;99.90
15160;DHT22;7680;48.800;9.680;2023-10-08T22:07:24;13.20;99.90
15160;DHT22;7680;48.800;9.680;2023-10-08T22:12:28;13.20;99.90
15160;DHT22;7680;48.800;9.680;2023-10-08T22:17:33;13.20;99.90
15160;DHT22;7680;48.800;9.680;2023-10-08T22:22:46;13.20;99.90
15160;DHT22;7680;48.800;9.680;2023-10-08T22:27:50;13.10;99.90
15160;DHT22;7680;48.800;9.680;2023-10-08T22:32:53;13.00;99.90
15160;DHT22;7680;48.800;9.680;2023-10-08T22:37:58;12.90;99.90
15160;DHT22;7680;48.800;9.680;2023-10-08T22:43:03;12.80;99.90
15160;DHT22;7680;48.800;9.680;2023-10-08T22:48:07;12.80;99.90
15160;DHT22;7680;48.800;9.680;2023-10-08T22:53:17;12.80;99.90
15160;DHT22;7680;48.800;9.680;2023-10-08T22:58:21;12.70;99.90
15160;DHT22;7680;48.800;9.680;2023-10-08T23:03:25;12.60;99.90
15160;DHT22;7680;48.800;9.680;2023-10-08T23:08:32;12.60;99.90
15160;DHT22;7680;48.800;9.680;2023-10-08T23:13:36;12.40;99.90
15160;DHT22;7680;48.800;9.680;2023-10-08T23:18:40;12.40;99.90
15160;DHT22;7680;48.800;9.680;2023-10-08T23:23:46;12.30;99.90
15160;DHT22;7680;48.800;9.680;2023-10-08T23:28:49;12.20;99.90
15160;DHT22;7680;48.800;9.680;2023-10-08T23:33:53;12.20;99.90
15160;DHT22;7680;48.800;9.680;2023-10-08T23:38:58;12.10;99.90
15160;DHT22;7680;48.800;9.680;2023-10-08T23:44:09;12.00;99.90
15160;DHT22;7680;48.800;9.680;2023-10-08T23:49:14;12.00;99.90
15160;DHT22;7680;48.800;9.680;2023-10-08T23:54:20;11.90;99.90
15160;DHT22;7680;48.800;9.680;2023-10-08T23:59:28;11.90;99.90
